createdAt,value
2018-03-25T00:00:08.800Z,19.70
2018-03-25T00:00:40.574Z,19.60
2018-03-25T00:01:12.377Z,19.70
2018-03-25T00:01:44.114Z,19.70
2018-03-25T00:02:16.605Z,19.70
2018-03-25T00:02:48.339Z,19.60
2018-03-25T00:03:20.076Z,19.70
2018-03-25T00:03:51.823Z,19.70
2018-03-25T00:04:23.540Z,19.60
2018-03-25T00:04:56.032Z,19.60
2018-03-25T00:05:27.775Z,19.60
2018-03-25T00:05:59.506Z,19.70
2018-03-25T00:06:31.240Z,19.60
2018-03-25T00:07:03.742Z,19.70
2018-03-25T00:07:35.535Z,19.70
2018-03-25T00:08:07.323Z,19.60
2018-03-25T00:08:39.042Z,19.60
2018-03-25T00:09:10.738Z,19.70
2018-03-25T00:09:42.465Z,19.70
2018-03-25T00:10:14.265Z,19.60
2018-03-25T00:10:46.755Z,19.60
2018-03-25T00:11:18.500Z,19.60
2018-03-25T00:11:50.244Z,19.60
2018-03-25T00:12:21.975Z,19.60
2018-03-25T00:12:53.748Z,19.60
2018-03-25T00:13:25.613Z,19.60
2018-03-25T00:13:58.048Z,19.60
2018-03-25T00:14:29.792Z,19.60
2018-03-25T00:15:01.544Z,19.60
2018-03-25T00:15:33.246Z,19.60
2018-03-25T00:16:05.781Z,19.60
2018-03-25T00:16:37.484Z,19.60
2018-03-25T00:17:09.204Z,19.60
2018-03-25T00:17:40.941Z,19.60
2018-03-25T00:18:13.447Z,19.60
2018-03-25T00:18:45.176Z,19.60
2018-03-25T00:19:16.917Z,19.60
2018-03-25T00:19:48.672Z,19.60
2018-03-25T00:20:20.396Z,19.60
2018-03-25T00:20:52.146Z,19.60
2018-03-25T00:21:24.638Z,19.60
2018-03-25T00:21:56.367Z,19.60
2018-03-25T00:22:28.088Z,19.60
2018-03-25T00:22:59.824Z,19.60
2018-03-25T00:23:31.556Z,19.60
2018-03-25T00:24:04.047Z,19.60
2018-03-25T00:24:35.771Z,19.60
2018-03-25T00:25:08.300Z,19.60
2018-03-25T00:25:40.039Z,19.60
2018-03-25T00:26:11.779Z,19.60
2018-03-25T00:26:43.502Z,19.60
2018-03-25T00:27:15.214Z,19.60
2018-03-25T00:27:47.118Z,19.60
2018-03-25T00:28:19.540Z,19.60
2018-03-25T00:28:51.277Z,19.60
2018-03-25T00:29:23.004Z,19.60
2018-03-25T00:29:55.486Z,19.60
2018-03-25T00:30:27.207Z,19.60
2018-03-25T00:30:59.714Z,19.60
2018-03-25T00:31:31.440Z,19.60
2018-03-25T00:32:03.167Z,19.60
2018-03-25T00:32:35.660Z,19.60
2018-03-25T00:33:07.399Z,19.60
2018-03-25T00:33:39.114Z,19.60
2018-03-25T00:34:11.601Z,19.60
2018-03-25T00:34:43.355Z,19.60
2018-03-25T00:35:15.074Z,19.60
2018-03-25T00:35:46.799Z,19.60
2018-03-25T00:36:19.410Z,19.60
2018-03-25T00:36:51.878Z,19.70
2018-03-25T00:37:23.621Z,19.60
2018-03-25T00:37:55.325Z,19.60
2018-03-25T00:38:27.813Z,19.60
2018-03-25T00:38:59.571Z,19.60
2018-03-25T00:39:31.311Z,19.60
2018-03-25T00:40:03.039Z,19.60
2018-03-25T00:40:34.784Z,19.70
2018-03-25T00:41:06.875Z,19.60
2018-03-25T00:41:38.609Z,19.60
2018-03-25T00:42:10.345Z,19.60
2018-03-25T00:42:42.060Z,19.60
2018-03-25T00:43:13.782Z,19.60
2018-03-25T00:43:46.296Z,19.60
2018-03-25T00:44:18.003Z,19.60
2018-03-25T00:44:49.734Z,19.60
2018-03-25T00:45:22.229Z,19.60
2018-03-25T00:45:53.963Z,19.60
2018-03-25T00:46:25.704Z,19.60
2018-03-25T00:46:57.441Z,19.60
2018-03-25T00:47:29.938Z,19.60
2018-03-25T00:48:01.711Z,19.60
2018-03-25T00:48:33.391Z,19.60
2018-03-25T00:49:05.133Z,19.60
2018-03-25T00:49:37.655Z,19.60
2018-03-25T00:50:09.435Z,19.60
2018-03-25T00:50:41.947Z,19.60
2018-03-25T00:51:13.667Z,19.60
2018-03-25T00:51:45.424Z,19.60
2018-03-25T00:52:17.147Z,19.70
2018-03-25T00:52:48.882Z,19.60
2018-03-25T00:53:21.392Z,19.60
2018-03-25T00:53:53.139Z,19.60
2018-03-25T00:54:24.879Z,19.70
2018-03-25T00:54:56.612Z,19.70
2018-03-25T00:55:28.365Z,19.60
2018-03-25T00:56:00.082Z,19.60
2018-03-25T00:56:31.814Z,19.70
2018-03-25T00:57:03.576Z,19.60
2018-03-25T00:57:35.304Z,19.60
2018-03-25T00:58:07.091Z,19.60
2018-03-25T00:58:38.832Z,19.60
2018-03-25T00:59:10.545Z,19.60
2018-03-25T00:59:42.266Z,19.60
2018-03-25T01:00:14.758Z,19.70
2018-03-25T01:00:46.517Z,19.60
2018-03-25T01:01:18.252Z,19.60
2018-03-25T01:01:49.980Z,19.60
2018-03-25T01:02:21.749Z,19.70
2018-03-25T01:02:53.484Z,19.60
2018-03-25T01:03:25.218Z,19.60
2018-03-25T01:03:56.963Z,19.60
2018-03-25T01:04:28.702Z,19.60
2018-03-25T01:05:00.442Z,19.60
2018-03-25T01:05:32.168Z,19.60
2018-03-25T01:06:04.668Z,19.60
2018-03-25T01:06:36.395Z,19.60
2018-03-25T01:07:08.131Z,19.60
2018-03-25T01:07:39.895Z,19.60
2018-03-25T01:08:11.605Z,19.60
2018-03-25T01:08:44.160Z,19.70
2018-03-25T01:09:16.655Z,19.70
2018-03-25T01:09:48.388Z,19.70
2018-03-25T01:10:20.113Z,19.60
2018-03-25T01:10:51.859Z,19.60
2018-03-25T01:11:23.576Z,19.60
2018-03-25T01:11:55.300Z,19.60
2018-03-25T01:12:27.033Z,19.60
2018-03-25T01:12:58.778Z,19.70
2018-03-25T01:13:30.502Z,19.70
2018-03-25T01:14:02.249Z,19.60
2018-03-25T01:14:34.006Z,19.60
2018-03-25T01:15:05.760Z,19.60
2018-03-25T01:15:37.488Z,19.60
2018-03-25T01:16:09.247Z,19.60
2018-03-25T01:16:40.967Z,19.60
2018-03-25T01:17:12.721Z,19.60
2018-03-25T01:17:44.423Z,19.60
2018-03-25T01:18:16.155Z,19.60
2018-03-25T01:18:47.904Z,19.60
2018-03-25T01:19:19.653Z,19.60
2018-03-25T01:19:51.390Z,19.60
2018-03-25T01:20:23.116Z,19.60
2018-03-25T01:20:54.865Z,19.60
2018-03-25T01:21:26.642Z,19.60
2018-03-25T01:21:58.356Z,19.70
2018-03-25T01:22:30.083Z,19.60
2018-03-25T01:23:01.804Z,19.60
2018-03-25T01:23:33.535Z,19.60
2018-03-25T01:24:05.270Z,19.60
2018-03-25T01:24:37.804Z,19.60
2018-03-25T01:25:09.519Z,19.60
2018-03-25T01:25:41.263Z,19.60
2018-03-25T01:26:12.981Z,19.60
2018-03-25T01:26:44.703Z,19.70
2018-03-25T01:27:17.200Z,19.60
2018-03-25T01:27:48.932Z,19.60
2018-03-25T01:28:20.658Z,19.60
2018-03-25T01:28:53.138Z,19.60
2018-03-25T01:29:24.862Z,19.60
2018-03-25T01:29:57.354Z,19.60
2018-03-25T01:30:29.160Z,19.60
2018-03-25T01:31:00.864Z,19.60
2018-03-25T01:31:32.592Z,19.70
2018-03-25T01:32:04.507Z,19.60
2018-03-25T01:32:36.258Z,19.60
2018-03-25T01:33:07.953Z,19.60
2018-03-25T01:33:39.698Z,19.60
2018-03-25T01:34:11.440Z,19.50
2018-03-25T01:34:43.167Z,19.50
2018-03-25T01:35:14.891Z,19.50
2018-03-25T01:35:46.648Z,19.50
2018-03-25T01:36:18.375Z,19.50
2018-03-25T01:36:50.095Z,19.50
2018-03-25T01:37:22.595Z,19.60
2018-03-25T01:37:54.384Z,19.60
2018-03-25T01:38:26.112Z,19.50
2018-03-25T01:38:57.833Z,19.60
2018-03-25T01:39:29.586Z,19.60
2018-03-25T01:40:01.310Z,19.60
2018-03-25T01:40:33.036Z,19.60
2018-03-25T01:41:05.542Z,19.60
2018-03-25T01:41:37.262Z,19.60
2018-03-25T01:42:08.999Z,19.60
2018-03-25T01:42:40.766Z,19.60
2018-03-25T01:43:12.450Z,19.60
2018-03-25T01:43:44.175Z,19.50
2018-03-25T01:44:15.907Z,19.50
2018-03-25T01:44:47.631Z,19.50
2018-03-25T01:45:19.363Z,19.50
2018-03-25T01:45:51.095Z,19.50
2018-03-25T01:46:23.577Z,19.50
2018-03-25T01:46:55.366Z,19.50
2018-03-25T01:47:27.128Z,19.60
2018-03-25T01:47:58.867Z,19.60
2018-03-25T01:48:30.575Z,19.60
2018-03-25T01:49:02.312Z,19.60
2018-03-25T01:49:34.058Z,19.70
2018-03-25T01:50:05.782Z,19.70
2018-03-25T01:50:37.527Z,19.70
2018-03-25T01:51:09.306Z,19.60
2018-03-25T01:51:41.042Z,19.70
2018-03-25T01:52:12.772Z,19.70
2018-03-25T01:52:44.517Z,19.70
2018-03-25T01:53:16.281Z,19.70
2018-03-25T01:53:47.992Z,19.70
2018-03-25T01:54:19.734Z,19.70
2018-03-25T01:54:51.511Z,19.70
2018-03-25T01:55:23.234Z,19.70
2018-03-25T01:55:54.951Z,19.70
2018-03-25T01:56:27.471Z,19.70
2018-03-25T01:56:59.212Z,19.70
2018-03-25T01:57:30.949Z,19.70
2018-03-25T01:58:02.686Z,19.70
2018-03-25T01:58:34.450Z,19.70
2018-03-25T01:59:06.195Z,19.70
2018-03-25T01:59:37.924Z,19.70
2018-03-25T02:00:09.683Z,19.70
2018-03-25T02:00:41.430Z,19.70
2018-03-25T02:01:13.154Z,19.70
2018-03-25T02:01:44.899Z,19.70
2018-03-25T02:02:16.631Z,19.60
2018-03-25T02:02:48.383Z,19.60
2018-03-25T02:03:20.121Z,19.70
2018-03-25T02:03:51.900Z,19.70
2018-03-25T02:04:23.621Z,19.70
2018-03-25T02:04:55.362Z,19.70
2018-03-25T02:05:27.106Z,19.70
2018-03-25T02:05:58.827Z,19.80
2018-03-25T02:06:30.573Z,19.80
2018-03-25T02:07:02.343Z,19.80
2018-03-25T02:07:34.101Z,19.80
2018-03-25T02:08:05.856Z,19.90
2018-03-25T02:08:37.595Z,19.90
2018-03-25T02:09:09.347Z,19.90
2018-03-25T02:09:41.068Z,20.00
2018-03-25T02:10:12.850Z,19.90
2018-03-25T02:10:44.598Z,19.80
2018-03-25T02:11:17.118Z,19.90
2018-03-25T02:11:48.869Z,19.90
2018-03-25T02:12:20.600Z,19.90
2018-03-25T02:12:52.327Z,19.90
2018-03-25T02:13:24.065Z,19.90
2018-03-25T02:13:55.788Z,19.90
2018-03-25T02:14:28.301Z,19.90
2018-03-25T02:15:00.040Z,19.90
2018-03-25T02:15:31.783Z,19.90
2018-03-25T02:16:03.526Z,19.90
2018-03-25T02:16:35.248Z,19.90
2018-03-25T02:17:06.979Z,20.00
2018-03-25T02:17:39.475Z,19.90
2018-03-25T02:18:11.234Z,19.90
2018-03-25T02:18:42.981Z,19.90
2018-03-25T02:19:14.724Z,20.00
2018-03-25T02:19:46.456Z,20.00
2018-03-25T02:20:18.216Z,19.90
2018-03-25T02:20:49.942Z,20.00
2018-03-25T02:21:21.676Z,20.00
2018-03-25T02:21:53.414Z,19.90
2018-03-25T02:22:25.164Z,20.00
2018-03-25T02:22:56.907Z,20.00
2018-03-25T02:23:28.691Z,20.00
2018-03-25T02:24:00.392Z,20.00
2018-03-25T02:24:32.125Z,20.00
2018-03-25T02:25:03.880Z,20.00
2018-03-25T02:25:35.617Z,20.00
2018-03-25T02:26:07.352Z,20.00
2018-03-25T02:26:39.844Z,19.90
2018-03-25T02:27:11.589Z,19.90
2018-03-25T02:27:43.340Z,20.00
2018-03-25T02:28:15.041Z,20.00
2018-03-25T02:28:47.563Z,20.00
2018-03-25T02:29:19.302Z,20.00
2018-03-25T02:29:51.037Z,19.90
2018-03-25T02:30:22.770Z,19.90
2018-03-25T02:30:54.498Z,19.90
2018-03-25T02:31:26.249Z,19.90
2018-03-25T02:31:57.986Z,20.00
2018-03-25T02:32:29.738Z,19.90
2018-03-25T02:33:01.460Z,20.00
2018-03-25T02:33:34.073Z,19.90
2018-03-25T02:34:06.557Z,19.90
2018-03-25T02:34:38.297Z,19.90
2018-03-25T02:35:10.049Z,19.90
2018-03-25T02:35:41.780Z,19.90
2018-03-25T02:36:13.523Z,19.90
2018-03-25T02:36:45.307Z,20.00
2018-03-25T02:37:17.018Z,19.90
2018-03-25T02:37:48.740Z,19.90
2018-03-25T02:38:20.510Z,19.90
2018-03-25T02:38:52.273Z,20.00
2018-03-25T02:39:24.017Z,20.00
2018-03-25T02:39:55.716Z,20.00
2018-03-25T02:40:27.442Z,20.00
2018-03-25T02:40:59.177Z,20.00
2018-03-25T02:41:30.923Z,20.00
2018-03-25T02:42:02.680Z,20.00
2018-03-25T02:42:34.429Z,20.00
2018-03-25T02:43:06.144Z,20.00
2018-03-25T02:43:38.648Z,19.90
2018-03-25T02:44:10.381Z,19.90
2018-03-25T02:44:42.164Z,19.90
2018-03-25T02:45:13.892Z,19.90
2018-03-25T02:45:45.641Z,19.90
2018-03-25T02:46:17.391Z,19.90
2018-03-25T02:46:49.141Z,19.90
2018-03-25T02:47:20.879Z,19.90
2018-03-25T02:47:52.617Z,19.90
2018-03-25T02:48:24.390Z,19.80
2018-03-25T02:48:56.136Z,19.80
2018-03-25T02:49:28.632Z,19.90
2018-03-25T02:50:00.381Z,19.90
2018-03-25T02:50:32.107Z,19.90
2018-03-25T02:51:03.873Z,19.90
2018-03-25T02:51:35.688Z,19.90
2018-03-25T02:52:08.187Z,19.90
2018-03-25T02:52:39.911Z,19.80
2018-03-25T02:53:11.647Z,19.90
2018-03-25T02:53:43.420Z,19.90
2018-03-25T02:54:15.125Z,19.90
2018-03-25T02:54:47.617Z,19.90
2018-03-25T02:55:19.377Z,19.90
2018-03-25T02:55:51.151Z,19.90
2018-03-25T02:56:22.905Z,19.90
2018-03-25T02:56:54.628Z,19.90
2018-03-25T02:57:26.354Z,19.90
2018-03-25T02:57:58.085Z,19.90
2018-03-25T02:58:29.858Z,19.90
2018-03-25T02:59:01.653Z,19.90
2018-03-25T02:59:33.371Z,19.90
2018-03-25T03:00:05.120Z,19.90
2018-03-25T03:00:36.855Z,19.90
2018-03-25T03:01:08.589Z,19.90
2018-03-25T03:01:40.337Z,19.90
2018-03-25T03:02:12.069Z,19.90
2018-03-25T03:02:43.832Z,19.90
2018-03-25T03:03:15.561Z,19.90
2018-03-25T03:03:47.329Z,19.90
2018-03-25T03:04:19.052Z,19.90
2018-03-25T03:04:50.793Z,19.90
2018-03-25T03:05:22.516Z,19.90
2018-03-25T03:05:54.238Z,19.80
2018-03-25T03:06:25.957Z,19.80
2018-03-25T03:06:58.453Z,19.90
2018-03-25T03:07:30.198Z,19.80
2018-03-25T03:08:01.947Z,19.90
2018-03-25T03:08:33.674Z,19.80
2018-03-25T03:09:05.418Z,19.90
2018-03-25T03:09:37.147Z,19.80
2018-03-25T03:10:09.645Z,19.80
2018-03-25T03:10:41.373Z,19.80
2018-03-25T03:11:13.148Z,19.80
2018-03-25T03:11:44.883Z,19.90
2018-03-25T03:12:16.623Z,19.90
2018-03-25T03:12:48.390Z,19.90
2018-03-25T03:13:20.098Z,19.80
2018-03-25T03:13:51.823Z,19.80
2018-03-25T03:14:23.588Z,19.90
2018-03-25T03:14:55.308Z,19.90
2018-03-25T03:15:27.802Z,19.80
2018-03-25T03:15:59.630Z,19.80
2018-03-25T03:16:32.102Z,19.80
2018-03-25T03:17:03.828Z,19.80
2018-03-25T03:17:35.566Z,19.90
2018-03-25T03:18:07.303Z,19.80
2018-03-25T03:18:39.839Z,19.80
2018-03-25T03:19:11.589Z,19.80
2018-03-25T03:19:43.352Z,19.80
2018-03-25T03:20:15.069Z,19.90
2018-03-25T03:20:46.837Z,19.80
2018-03-25T03:21:18.578Z,19.80
2018-03-25T03:21:50.326Z,19.90
2018-03-25T03:22:22.052Z,19.80
2018-03-25T03:22:53.786Z,19.80
2018-03-25T03:23:25.541Z,19.90
2018-03-25T03:23:57.279Z,19.90
2018-03-25T03:24:29.037Z,19.90
2018-03-25T03:25:01.183Z,19.80
2018-03-25T03:25:32.962Z,19.90
2018-03-25T03:26:05.546Z,19.90
2018-03-25T03:26:38.225Z,19.80
2018-03-25T03:27:09.975Z,19.80
2018-03-25T03:27:41.703Z,19.90
2018-03-25T03:28:13.464Z,19.80
2018-03-25T03:28:45.185Z,19.90
2018-03-25T03:29:16.925Z,19.90
2018-03-25T03:29:48.684Z,19.80
2018-03-25T03:30:20.441Z,19.80
2018-03-25T03:30:52.196Z,19.90
2018-03-25T03:31:23.941Z,19.80
2018-03-25T03:31:55.734Z,19.80
2018-03-25T03:32:27.472Z,19.80
2018-03-25T03:32:59.217Z,19.90
2018-03-25T03:33:30.951Z,19.80
2018-03-25T03:34:02.709Z,19.90
2018-03-25T03:34:34.432Z,19.90
2018-03-25T03:35:06.190Z,19.90
2018-03-25T03:35:38.715Z,19.90
2018-03-25T03:36:10.455Z,19.80
2018-03-25T03:36:42.189Z,19.90
2018-03-25T03:37:13.920Z,19.90
2018-03-25T03:37:45.685Z,19.80
2018-03-25T03:38:17.433Z,19.90
2018-03-25T03:38:49.175Z,19.90
2018-03-25T03:39:20.949Z,19.90
2018-03-25T03:39:52.656Z,19.90
2018-03-25T03:40:24.447Z,19.90
2018-03-25T03:40:56.247Z,19.90
2018-03-25T03:41:27.976Z,19.90
2018-03-25T03:41:59.715Z,19.90
2018-03-25T03:42:31.460Z,19.90
2018-03-25T03:43:03.247Z,19.90
2018-03-25T03:43:35.749Z,19.90
2018-03-25T03:44:07.462Z,19.90
2018-03-25T03:44:39.209Z,19.90
2018-03-25T03:45:10.972Z,19.90
2018-03-25T03:45:42.701Z,19.90
2018-03-25T03:46:14.447Z,19.90
2018-03-25T03:46:46.206Z,19.90
2018-03-25T03:47:17.931Z,19.90
2018-03-25T03:47:49.674Z,19.80
2018-03-25T03:48:21.409Z,19.90
2018-03-25T03:48:53.155Z,19.90
2018-03-25T03:49:24.888Z,19.90
2018-03-25T03:49:56.622Z,19.90
2018-03-25T03:50:29.134Z,19.90
2018-03-25T03:51:00.867Z,19.90
2018-03-25T03:51:32.627Z,19.90
2018-03-25T03:52:04.371Z,19.80
2018-03-25T03:52:36.114Z,19.90
2018-03-25T03:53:07.859Z,19.80
2018-03-25T03:53:39.594Z,19.80
2018-03-25T03:54:11.357Z,19.90
2018-03-25T03:54:43.095Z,19.80
2018-03-25T03:55:14.831Z,19.90
2018-03-25T03:55:46.578Z,19.90
2018-03-25T03:56:18.299Z,19.90
2018-03-25T03:56:50.096Z,19.90
2018-03-25T03:57:21.864Z,19.90
2018-03-25T03:57:53.762Z,19.90
2018-03-25T03:58:26.249Z,19.90
2018-03-25T03:58:57.991Z,19.90
2018-03-25T03:59:29.738Z,19.90
2018-03-25T04:00:01.499Z,19.80
2018-03-25T04:00:33.255Z,19.90
2018-03-25T04:01:04.968Z,19.80
2018-03-25T04:01:36.748Z,19.80
2018-03-25T04:02:09.250Z,19.80
2018-03-25T04:02:41.001Z,19.80
2018-03-25T04:03:12.723Z,19.90
2018-03-25T04:03:44.452Z,19.80
2018-03-25T04:04:16.210Z,19.80
2018-03-25T04:04:48.747Z,19.90
2018-03-25T04:05:21.291Z,19.90
2018-03-25T04:05:53.000Z,19.90
2018-03-25T04:06:24.744Z,19.90
2018-03-25T04:06:56.463Z,19.90
2018-03-25T04:07:28.223Z,19.80
2018-03-25T04:07:59.978Z,19.80
2018-03-25T04:08:31.741Z,19.80
2018-03-25T04:09:03.482Z,19.90
2018-03-25T04:09:35.219Z,19.90
2018-03-25T04:10:06.998Z,19.80
2018-03-25T04:10:38.784Z,19.80
2018-03-25T04:11:10.607Z,19.90
2018-03-25T04:11:43.102Z,19.80
2018-03-25T04:12:14.858Z,19.80
2018-03-25T04:12:46.595Z,19.80
2018-03-25T04:13:18.374Z,19.80
2018-03-25T04:13:50.165Z,19.80
2018-03-25T04:14:21.919Z,19.80
2018-03-25T04:14:53.652Z,19.90
2018-03-25T04:15:25.415Z,19.80
2018-03-25T04:15:57.145Z,19.80
2018-03-25T04:16:28.908Z,19.80
2018-03-25T04:17:00.648Z,19.80
2018-03-25T04:17:32.388Z,19.90
2018-03-25T04:18:04.114Z,19.80
2018-03-25T04:18:35.873Z,19.80
2018-03-25T04:19:07.600Z,19.90
2018-03-25T04:19:39.373Z,19.90
2018-03-25T04:20:11.289Z,19.90
2018-03-25T04:20:43.786Z,19.90
2018-03-25T04:21:15.535Z,19.80
2018-03-25T04:21:47.282Z,19.90
2018-03-25T04:22:19.019Z,19.90
2018-03-25T04:22:50.741Z,19.90
2018-03-25T04:23:22.508Z,19.90
2018-03-25T04:23:54.275Z,19.80
2018-03-25T04:24:26.071Z,19.90
2018-03-25T04:24:57.766Z,19.90
2018-03-25T04:25:29.539Z,19.90
2018-03-25T04:26:01.278Z,19.90
2018-03-25T04:26:33.014Z,19.90
2018-03-25T04:27:04.743Z,19.90
2018-03-25T04:27:36.479Z,19.90
2018-03-25T04:28:08.266Z,19.90
2018-03-25T04:28:40.001Z,19.80
2018-03-25T04:29:11.736Z,19.90
2018-03-25T04:29:43.458Z,19.80
2018-03-25T04:30:15.217Z,19.80
2018-03-25T04:30:46.980Z,19.90
2018-03-25T04:31:18.776Z,19.90
2018-03-25T04:31:50.521Z,19.90
2018-03-25T04:32:22.266Z,19.90
2018-03-25T04:32:54.059Z,19.90
2018-03-25T04:33:25.798Z,19.90
2018-03-25T04:33:57.551Z,19.90
2018-03-25T04:34:29.274Z,19.90
2018-03-25T04:35:01.009Z,19.90
2018-03-25T04:35:32.749Z,19.90
2018-03-25T04:36:05.315Z,19.90
2018-03-25T04:36:37.148Z,19.90
2018-03-25T04:37:08.881Z,19.90
2018-03-25T04:37:40.628Z,19.90
2018-03-25T04:38:12.405Z,19.90
2018-03-25T04:38:44.135Z,19.90
2018-03-25T04:39:15.896Z,19.90
2018-03-25T04:39:47.627Z,19.90
2018-03-25T04:40:19.390Z,19.90
2018-03-25T04:40:51.140Z,19.90
2018-03-25T04:41:22.941Z,19.80
2018-03-25T04:41:54.686Z,19.90
2018-03-25T04:42:26.436Z,19.90
2018-03-25T04:42:58.178Z,19.90
2018-03-25T04:43:29.899Z,19.90
2018-03-25T04:44:01.670Z,19.90
2018-03-25T04:44:33.408Z,19.90
2018-03-25T04:45:05.156Z,19.90
2018-03-25T04:45:36.867Z,19.90
2018-03-25T04:46:08.650Z,19.90
2018-03-25T04:46:40.386Z,19.90
2018-03-25T04:47:12.128Z,19.80
2018-03-25T04:47:43.887Z,19.90
2018-03-25T04:48:15.699Z,19.90
2018-03-25T04:48:48.191Z,19.90
2018-03-25T04:49:19.948Z,19.90
2018-03-25T04:49:51.679Z,19.90
2018-03-25T04:50:23.411Z,19.90
2018-03-25T04:50:55.153Z,19.90
2018-03-25T04:51:26.899Z,19.90
2018-03-25T04:51:58.652Z,19.90
2018-03-25T04:52:31.195Z,19.90
2018-03-25T04:53:02.958Z,19.90
2018-03-25T04:53:35.497Z,19.90
2018-03-25T04:54:07.249Z,19.90
2018-03-25T04:54:39.043Z,19.90
2018-03-25T04:55:10.799Z,19.90
2018-03-25T04:55:42.512Z,19.90
2018-03-25T04:56:14.229Z,19.90
2018-03-25T04:56:46.000Z,19.90
2018-03-25T04:57:17.772Z,19.90
2018-03-25T04:57:49.491Z,19.90
2018-03-25T04:58:21.235Z,19.90
2018-03-25T04:58:53.010Z,19.90
2018-03-25T04:59:24.759Z,19.90
2018-03-25T04:59:56.537Z,19.90
2018-03-25T05:00:28.260Z,19.80
2018-03-25T05:01:00.060Z,19.90
2018-03-25T05:01:31.855Z,19.90
2018-03-25T05:02:03.544Z,19.90
2018-03-25T05:02:35.288Z,19.90
2018-03-25T05:03:07.080Z,19.90
2018-03-25T05:03:38.824Z,19.90
2018-03-25T05:04:10.556Z,19.90
2018-03-25T05:04:42.318Z,19.90
2018-03-25T05:05:14.027Z,19.90
2018-03-25T05:05:45.784Z,19.90
2018-03-25T05:06:17.524Z,19.80
2018-03-25T05:06:49.343Z,19.90
2018-03-25T05:07:21.129Z,19.90
2018-03-25T05:07:52.916Z,19.80
2018-03-25T05:08:24.681Z,19.90
2018-03-25T05:08:56.432Z,19.90
2018-03-25T05:09:28.187Z,19.90
2018-03-25T05:09:59.912Z,19.90
2018-03-25T05:10:31.654Z,19.90
2018-03-25T05:11:03.398Z,19.90
2018-03-25T05:11:35.134Z,19.90
2018-03-25T05:12:07.668Z,19.90
2018-03-25T05:12:39.416Z,19.80
2018-03-25T05:13:11.156Z,19.90
2018-03-25T05:13:42.879Z,19.90
2018-03-25T05:14:14.621Z,19.80
2018-03-25T05:14:46.349Z,19.80
2018-03-25T05:15:18.209Z,19.80
2018-03-25T05:15:49.912Z,19.90
2018-03-25T05:16:22.437Z,19.70
2018-03-25T05:16:54.202Z,19.70
2018-03-25T05:17:26.732Z,19.70
2018-03-25T05:17:58.448Z,19.70
2018-03-25T05:18:30.188Z,19.70
2018-03-25T05:19:01.957Z,19.70
2018-03-25T05:19:33.660Z,19.70
2018-03-25T05:20:05.425Z,19.70
2018-03-25T05:20:37.188Z,19.80
2018-03-25T05:21:08.927Z,19.70
2018-03-25T05:21:40.648Z,19.80
2018-03-25T05:22:12.421Z,19.80
2018-03-25T05:22:44.142Z,19.80
2018-03-25T05:23:15.884Z,19.90
2018-03-25T05:23:47.611Z,19.90
2018-03-25T05:24:20.134Z,19.90
2018-03-25T05:24:51.910Z,19.80
2018-03-25T05:25:24.396Z,19.90
2018-03-25T05:25:56.133Z,19.80
2018-03-25T05:26:27.873Z,19.90
2018-03-25T05:27:00.366Z,19.90
2018-03-25T05:27:32.126Z,19.80
2018-03-25T05:28:03.856Z,19.90
2018-03-25T05:28:35.602Z,19.90
2018-03-25T05:29:07.327Z,19.90
2018-03-25T05:29:39.069Z,19.90
2018-03-25T05:30:10.972Z,19.90
2018-03-25T05:30:42.699Z,19.90
2018-03-25T05:31:14.434Z,19.90
2018-03-25T05:31:46.219Z,19.90
2018-03-25T05:32:17.953Z,19.90
2018-03-25T05:32:49.722Z,19.90
2018-03-25T05:33:22.229Z,20.00
2018-03-25T05:33:53.969Z,19.90
2018-03-25T05:34:25.719Z,19.90
2018-03-25T05:34:57.449Z,19.90
2018-03-25T05:35:29.188Z,19.90
2018-03-25T05:36:00.944Z,19.90
2018-03-25T05:36:32.675Z,19.90
2018-03-25T05:37:04.416Z,20.00
2018-03-25T05:37:36.162Z,20.00
2018-03-25T05:38:07.891Z,19.90
2018-03-25T05:38:39.630Z,19.90
2018-03-25T05:39:11.366Z,20.00
2018-03-25T05:39:43.862Z,20.00
2018-03-25T05:40:15.582Z,19.90
2018-03-25T05:40:47.317Z,20.00
2018-03-25T05:41:19.040Z,20.00
2018-03-25T05:41:50.761Z,20.00
2018-03-25T05:42:22.512Z,20.00
2018-03-25T05:42:54.269Z,20.00
2018-03-25T05:43:25.995Z,20.00
2018-03-25T05:43:57.735Z,20.00
2018-03-25T05:44:29.453Z,19.90
2018-03-25T05:45:01.175Z,20.00
2018-03-25T05:45:33.010Z,20.00
2018-03-25T05:46:05.517Z,20.00
2018-03-25T05:46:37.266Z,20.00
2018-03-25T05:47:09.008Z,19.90
2018-03-25T05:47:40.733Z,19.90
2018-03-25T05:48:12.472Z,19.90
2018-03-25T05:48:44.219Z,19.90
2018-03-25T05:49:15.937Z,19.90
2018-03-25T05:49:48.443Z,19.90
2018-03-25T05:50:20.193Z,19.90
2018-03-25T05:50:51.914Z,19.90
2018-03-25T05:51:23.642Z,19.90
2018-03-25T05:51:55.384Z,19.90
2018-03-25T05:52:27.905Z,19.90
2018-03-25T05:52:59.667Z,19.80
2018-03-25T05:53:31.406Z,19.80
2018-03-25T05:54:03.249Z,19.90
2018-03-25T05:54:34.931Z,19.80
2018-03-25T05:55:06.655Z,19.80
2018-03-25T05:55:39.162Z,19.90
2018-03-25T05:56:10.915Z,19.90
2018-03-25T05:56:42.632Z,19.90
2018-03-25T05:57:14.385Z,19.90
2018-03-25T05:57:46.111Z,19.90
2018-03-25T05:58:18.671Z,19.90
2018-03-25T05:58:50.382Z,19.90
2018-03-25T05:59:22.115Z,19.90
2018-03-25T05:59:53.864Z,19.90
2018-03-25T06:00:25.675Z,19.90
2018-03-25T06:00:57.369Z,19.90
2018-03-25T06:01:29.089Z,19.90
2018-03-25T06:02:00.849Z,19.90
2018-03-25T06:02:32.575Z,19.90
2018-03-25T06:03:04.315Z,19.90
2018-03-25T06:03:36.053Z,19.90
2018-03-25T06:04:07.762Z,19.90
2018-03-25T06:04:39.484Z,19.90
2018-03-25T06:05:11.222Z,19.90
2018-03-25T06:05:42.953Z,20.00
2018-03-25T06:06:14.700Z,20.00
2018-03-25T06:06:46.473Z,19.90
2018-03-25T06:07:19.000Z,20.00
2018-03-25T06:07:50.727Z,20.00
2018-03-25T06:08:22.473Z,20.00
2018-03-25T06:08:54.219Z,20.00
2018-03-25T06:09:27.220Z,20.00
2018-03-25T06:09:58.945Z,20.00
2018-03-25T06:10:30.676Z,20.00
2018-03-25T06:11:02.407Z,20.00
2018-03-25T06:11:34.178Z,20.00
2018-03-25T06:12:05.897Z,20.00
2018-03-25T06:12:37.628Z,20.00
2018-03-25T06:13:09.372Z,20.00
2018-03-25T06:13:41.848Z,20.00
2018-03-25T06:14:13.565Z,20.00
2018-03-25T06:14:46.067Z,20.00
2018-03-25T06:15:17.832Z,20.00
2018-03-25T06:15:49.596Z,20.00
2018-03-25T06:16:21.320Z,20.10
2018-03-25T06:16:53.056Z,20.00
2018-03-25T06:17:24.807Z,20.10
2018-03-25T06:17:56.584Z,20.10
2018-03-25T06:18:28.329Z,20.10
2018-03-25T06:19:00.913Z,20.10
2018-03-25T06:19:32.584Z,20.10
2018-03-25T06:20:04.319Z,20.10
2018-03-25T06:20:36.050Z,20.10
2018-03-25T06:21:07.770Z,20.10
2018-03-25T06:21:40.291Z,20.10
2018-03-25T06:22:11.998Z,20.10
2018-03-25T06:22:43.733Z,20.10
2018-03-25T06:23:15.462Z,20.10
2018-03-25T06:23:47.983Z,20.10
2018-03-25T06:24:19.711Z,20.10
2018-03-25T06:24:51.460Z,20.10
2018-03-25T06:25:23.179Z,20.10
2018-03-25T06:25:54.919Z,20.10
2018-03-25T06:26:26.664Z,20.20
2018-03-25T06:26:58.396Z,20.20
2018-03-25T06:27:30.894Z,20.20
2018-03-25T06:28:02.632Z,20.20
2018-03-25T06:28:34.371Z,20.20
2018-03-25T06:29:06.110Z,20.10
2018-03-25T06:29:37.829Z,20.20
2018-03-25T06:30:10.347Z,20.20
2018-03-25T06:30:42.095Z,20.10
2018-03-25T06:31:13.827Z,20.20
2018-03-25T06:31:45.588Z,20.10
2018-03-25T06:32:17.340Z,20.20
2018-03-25T06:32:49.112Z,20.20
2018-03-25T06:33:20.814Z,20.20
2018-03-25T06:33:52.564Z,20.20
2018-03-25T06:34:24.300Z,20.10
2018-03-25T06:34:56.037Z,20.10
2018-03-25T06:35:27.767Z,20.10
2018-03-25T06:35:59.515Z,20.10
2018-03-25T06:36:31.252Z,20.10
2018-03-25T06:37:03.028Z,20.10
2018-03-25T06:37:34.739Z,20.10
2018-03-25T06:38:06.456Z,20.10
2018-03-25T06:38:38.979Z,20.20
2018-03-25T06:39:10.704Z,20.10
2018-03-25T06:39:42.449Z,20.20
2018-03-25T06:40:14.220Z,20.20
2018-03-25T06:40:45.965Z,20.20
2018-03-25T06:41:17.714Z,20.20
2018-03-25T06:41:49.444Z,20.20
2018-03-25T06:42:21.184Z,20.20
2018-03-25T06:42:52.960Z,20.20
2018-03-25T06:43:24.662Z,20.20
2018-03-25T06:43:56.415Z,20.20
2018-03-25T06:44:28.180Z,20.20
2018-03-25T06:44:59.912Z,20.20
2018-03-25T06:45:31.679Z,20.20
2018-03-25T06:46:03.450Z,20.20
2018-03-25T06:46:35.321Z,20.20
2018-03-25T06:47:07.081Z,20.20
2018-03-25T06:47:38.827Z,20.20
2018-03-25T06:48:10.583Z,20.20
2018-03-25T06:48:42.318Z,20.20
2018-03-25T06:49:14.086Z,20.20
2018-03-25T06:49:45.838Z,20.20